sensor_id;sensor_type;location;lat;lon;timestamp;temperature;humidity
2897;DHT22;1458;49.728;9.228;2022-10-23T00:01:51;12.30;99.90
2897;DHT22;1458;49.728;9.228;2022-10-23T00:04:24;12.30;99.90
2897;DHT22;1458;49.728;9.228;2022-10-23T00:06:53;12.20;99.90
2897;DHT22;1458;49.728;9.228;2022-10-23T00:09:27;12.10;99.90
2897;DHT22;1458;49.728;9.228;2022-10-23T00:11:59;12.10;99.90
2897;DHT22;1458;49.728;9.228;2022-10-23T00:14:32;12.00;99.90
2897;DHT22;1458;49.728;9.228;2022-10-23T00:17:00;12.20;99.90
2897;DHT22;1458;49.728;9.228;2022-10-23T00:19:34;12.30;99.90
2897;DHT22;1458;49.728;9.228;2022-10-23T00:22:02;12.20;99.90
2897;DHT22;1458;49.728;9.228;2022-10-23T00:24:32;12.20;99.90
2897;DHT22;1458;49.728;9.228;2022-10-23T00:27:02;12.20;99.90
2897;DHT22;1458;49.728;9.228;2022-10-23T00:29:34;12.10;99.90
2897;DHT22;1458;49.728;9.228;2022-10-23T00:32:08;12.00;99.90
2897;DHT22;1458;49.728;9.228;2022-10-23T00:34:36;11.90;99.90
2897;DHT22;1458;49.728;9.228;2022-10-23T00:37:06;11.90;99.90
2897;DHT22;1458;49.728;9.228;2022-10-23T00:39:35;11.90;99.90
2897;DHT22;1458;49.728;9.228;2022-10-23T00:42:04;11.80;99.90
2897;DHT22;1458;49.728;9.228;2022-10-23T00:45:12;12.00;99.90
2897;DHT22;1458;49.728;9.228;2022-10-23T00:47:43;12.10;99.90
2897;DHT22;1458;49.728;9.228;2022-10-23T00:50:11;12.10;99.90
2897;DHT22;1458;49.728;9.228;2022-10-23T00:52:44;12.10;99.90
2897;DHT22;1458;49.728;9.228;2022-10-23T00:55:14;12.00;99.90
2897;DHT22;1458;49.728;9.228;2022-10-23T00:57:43;12.00;99.90
2897;DHT22;1458;49.728;9.228;2022-10-23T01:00:17;12.00;99.90
2897;DHT22;1458;49.728;9.228;2022-10-23T01:02:46;12.00;99.90
2897;DHT22;1458;49.728;9.228;2022-10-23T01:05:14;11.90;99.90
2897;DHT22;1458;49.728;9.228;2022-10-23T01:07:49;11.90;99.90
2897;DHT22;1458;49.728;9.228;2022-10-23T01:10:25;11.90;99.90
2897;DHT22;1458;49.728;9.228;2022-10-23T01:13:04;11.90;99.90
2897;DHT22;1458;49.728;9.228;2022-10-23T01:15:38;11.80;99.90
2897;DHT22;1458;49.728;9.228;2022-10-23T01:18:14;11.80;99.90
2897;DHT22;1458;49.728;9.228;2022-10-23T01:20:51;11.90;99.90
2897;DHT22;1458;49.728;9.228;2022-10-23T01:26:42;11.90;99.90
2897;DHT22;1458;49.728;9.228;2022-10-23T01:29:21;12.00;99.90
2897;DHT22;1458;49.728;9.228;2022-10-23T01:31:57;12.00;99.90
2897;DHT22;1458;49.728;9.228;2022-10-23T01:34:30;12.00;99.90
2897;DHT22;1458;49.728;9.228;2022-10-23T01:37:03;11.90;99.90
2897;DHT22;1458;49.728;9.228;2022-10-23T01:39:34;11.80;99.90
2897;DHT22;1458;49.728;9.228;2022-10-23T01:42:05;11.90;99.90
2897;DHT22;1458;49.728;9.228;2022-10-23T01:44:40;11.90;99.90
2897;DHT22;1458;49.728;9.228;2022-10-23T01:47:10;11.90;99.90
2897;DHT22;1458;49.728;9.228;2022-10-23T01:50:04;11.90;99.90
2897;DHT22;1458;49.728;9.228;2022-10-23T01:52:33;11.90;99.90
2897;DHT22;1458;49.728;9.228;2022-10-23T01:55:04;11.90;99.90
2897;DHT22;1458;49.728;9.228;2022-10-23T01:57:34;11.90;99.90
2897;DHT22;1458;49.728;9.228;2022-10-23T02:00:08;11.90;99.90
2897;DHT22;1458;49.728;9.228;2022-10-23T02:02:53;11.90;99.90
2897;DHT22;1458;49.728;9.228;2022-10-23T02:05:28;11.90;99.90
2897;DHT22;1458;49.728;9.228;2022-10-23T02:07:59;12.00;99.90
2897;DHT22;1458;49.728;9.228;2022-10-23T02:10:31;11.90;99.90
2897;DHT22;1458;49.728;9.228;2022-10-23T02:13:06;11.90;99.90
2897;DHT22;1458;49.728;9.228;2022-10-23T02:15:44;11.90;99.90
2897;DHT22;1458;49.728;9.228;2022-10-23T02:18:21;11.90;99.90
2897;DHT22;1458;49.728;9.228;2022-10-23T02:20:55;11.80;99.90
2897;DHT22;1458;49.728;9.228;2022-10-23T02:23:30;11.70;99.90
2897;DHT22;1458;49.728;9.228;2022-10-23T02:26:04;11.70;99.90
2897;DHT22;1458;49.728;9.228;2022-10-23T02:28:41;11.70;99.90
2897;DHT22;1458;49.728;9.228;2022-10-23T02:31:13;11.60;99.90
2897;DHT22;1458;49.728;9.228;2022-10-23T02:33:43;11.50;99.90
2897;DHT22;1458;49.728;9.228;2022-10-23T02:36:13;11.50;99.90
2897;DHT22;1458;49.728;9.228;2022-10-23T02:38:43;11.60;99.90
2897;DHT22;1458;49.728;9.228;2022-10-23T02:41:16;11.60;99.90
2897;DHT22;1458;49.728;9.228;2022-10-23T02:43:56;11.70;99.90
2897;DHT22;1458;49.728;9.228;2022-10-23T02:46:40;11.70;99.90
2897;DHT22;1458;49.728;9.228;2022-10-23T02:49:18;11.60;99.90
2897;DHT22;1458;49.728;9.228;2022-10-23T02:51:59;11.50;99.90
2897;DHT22;1458;49.728;9.228;2022-10-23T02:54:45;11.50;99.90
2897;DHT22;1458;49.728;9.228;2022-10-23T02:57:24;11.50;99.90
2897;DHT22;1458;49.728;9.228;2022-10-23T03:00:02;11.50;99.90
2897;DHT22;1458;49.728;9.228;2022-10-23T03:02:36;11.50;99.90
2897;DHT22;1458;49.728;9.228;2022-10-23T03:05:10;11.40;99.90
2897;DHT22;1458;49.728;9.228;2022-10-23T03:07:40;11.40;99.90
2897;DHT22;1458;49.728;9.228;2022-10-23T03:10:10;11.40;99.90
2897;DHT22;1458;49.728;9.228;2022-10-23T03:12:37;11.30;99.90
2897;DHT22;1458;49.728;9.228;2022-10-23T03:15:07;11.40;99.90
2897;DHT22;1458;49.728;9.228;2022-10-23T03:17:38;11.30;99.90
2897;DHT22;1458;49.728;9.228;2022-10-23T03:20:08;11.40;99.90
2897;DHT22;1458;49.728;9.228;2022-10-23T03:22:36;11.30;99.90
2897;DHT22;1458;49.728;9.228;2022-10-23T03:25:06;11.30;99.90
2897;DHT22;1458;49.728;9.228;2022-10-23T03:27:35;11.20;99.90
2897;DHT22;1458;49.728;9.228;2022-10-23T03:30:06;11.20;99.90
2897;DHT22;1458;49.728;9.228;2022-10-23T03:32:38;11.10;99.90
2897;DHT22;1458;49.728;9.228;2022-10-23T03:35:06;11.10;99.90
2897;DHT22;1458;49.728;9.228;2022-10-23T03:37:33;11.00;99.90
2897;DHT22;1458;49.728;9.228;2022-10-23T03:40:01;11.10;99.90
2897;DHT22;1458;49.728;9.228;2022-10-23T03:42:33;11.00;99.90
2897;DHT22;1458;49.728;9.228;2022-10-23T03:45:00;11.20;99.90
2897;DHT22;1458;49.728;9.228;2022-10-23T03:47:28;11.20;99.90
2897;DHT22;1458;49.728;9.228;2022-10-23T03:50:01;11.20;99.90
2897;DHT22;1458;49.728;9.228;2022-10-23T03:52:30;11.10;99.90
2897;DHT22;1458;49.728;9.228;2022-10-23T03:54:57;11.10;99.90
2897;DHT22;1458;49.728;9.228;2022-10-23T03:57:24;11.00;99.90
2897;DHT22;1458;49.728;9.228;2022-10-23T03:59:52;11.00;99.90
2897;DHT22;1458;49.728;9.228;2022-10-23T04:02:20;11.00;99.90
2897;DHT22;1458;49.728;9.228;2022-10-23T04:04:47;11.00;99.90
2897;DHT22;1458;49.728;9.228;2022-10-23T04:07:16;11.00;99.90
2897;DHT22;1458;49.728;9.228;2022-10-23T04:09:45;10.90;99.90
2897;DHT22;1458;49.728;9.228;2022-10-23T04:12:15;10.90;99.90
2897;DHT22;1458;49.728;9.228;2022-10-23T04:14:43;10.90;99.90
2897;DHT22;1458;49.728;9.228;2022-10-23T04:17:10;10.90;99.90
2897;DHT22;1458;49.728;9.228;2022-10-23T04:19:38;10.90;99.90
2897;DHT22;1458;49.728;9.228;2022-10-23T04:22:05;10.90;99.90
2897;DHT22;1458;49.728;9.228;2022-10-23T04:24:34;10.80;99.90
2897;DHT22;1458;49.728;9.228;2022-10-23T04:27:01;10.80;99.90
2897;DHT22;1458;49.728;9.228;2022-10-23T04:29:29;10.70;99.90
2897;DHT22;1458;49.728;9.228;2022-10-23T04:31:57;10.70;99.90
2897;DHT22;1458;49.728;9.228;2022-10-23T04:34:25;10.80;99.90
2897;DHT22;1458;49.728;9.228;2022-10-23T04:36:53;10.80;99.90
2897;DHT22;1458;49.728;9.228;2022-10-23T04:39:20;10.80;99.90
2897;DHT22;1458;49.728;9.228;2022-10-23T04:41:49;10.70;99.90
2897;DHT22;1458;49.728;9.228;2022-10-23T04:44:18;10.70;99.90
2897;DHT22;1458;49.728;9.228;2022-10-23T04:46:46;10.70;99.90
2897;DHT22;1458;49.728;9.228;2022-10-23T04:49:14;10.70;99.90
2897;DHT22;1458;49.728;9.228;2022-10-23T04:51:47;10.70;99.90
2897;DHT22;1458;49.728;9.228;2022-10-23T04:54:50;10.60;99.90
2897;DHT22;1458;49.728;9.228;2022-10-23T04:57:32;10.60;99.90
2897;DHT22;1458;49.728;9.228;2022-10-23T05:00:07;10.60;99.90
2897;DHT22;1458;49.728;9.228;2022-10-23T05:02:49;10.60;99.90
2897;DHT22;1458;49.728;9.228;2022-10-23T05:05:19;10.60;99.90
2897;DHT22;1458;49.728;9.228;2022-10-23T05:07:59;10.60;99.90
2897;DHT22;1458;49.728;9.228;2022-10-23T05:10:47;10.60;99.90
2897;DHT22;1458;49.728;9.228;2022-10-23T05:13:17;10.60;99.90
2897;DHT22;1458;49.728;9.228;2022-10-23T05:15:46;10.70;99.90
2897;DHT22;1458;49.728;9.228;2022-10-23T05:18:20;10.70;99.90
2897;DHT22;1458;49.728;9.228;2022-10-23T05:20:55;10.70;99.90
2897;DHT22;1458;49.728;9.228;2022-10-23T05:23:26;10.80;99.90
2897;DHT22;1458;49.728;9.228;2022-10-23T05:25:58;10.80;99.90
2897;DHT22;1458;49.728;9.228;2022-10-23T05:28:30;10.80;99.90
2897;DHT22;1458;49.728;9.228;2022-10-23T05:30:59;10.60;99.90
2897;DHT22;1458;49.728;9.228;2022-10-23T05:33:30;10.60;99.90
2897;DHT22;1458;49.728;9.228;2022-10-23T05:35:59;10.70;99.90
2897;DHT22;1458;49.728;9.228;2022-10-23T05:38:29;10.60;99.90
2897;DHT22;1458;49.728;9.228;2022-10-23T05:41:03;10.70;99.90
2897;DHT22;1458;49.728;9.228;2022-10-23T05:43:32;10.70;99.90
2897;DHT22;1458;49.728;9.228;2022-10-23T05:46:28;10.80;99.90
2897;DHT22;1458;49.728;9.228;2022-10-23T05:49:09;10.80;99.90
2897;DHT22;1458;49.728;9.228;2022-10-23T05:52:03;10.60;99.90
2897;DHT22;1458;49.728;9.228;2022-10-23T05:54:39;10.70;99.90
2897;DHT22;1458;49.728;9.228;2022-10-23T05:57:19;10.70;99.90
2897;DHT22;1458;49.728;9.228;2022-10-23T05:59:50;10.70;99.90
2897;DHT22;1458;49.728;9.228;2022-10-23T06:02:37;10.70;99.90
2897;DHT22;1458;49.728;9.228;2022-10-23T06:05:13;10.70;99.90
2897;DHT22;1458;49.728;9.228;2022-10-23T06:07:56;10.70;99.90
2897;DHT22;1458;49.728;9.228;2022-10-23T06:10:24;10.60;99.90
2897;DHT22;1458;49.728;9.228;2022-10-23T06:12:54;10.60;99.90
2897;DHT22;1458;49.728;9.228;2022-10-23T06:15:25;10.50;99.90
2897;DHT22;1458;49.728;9.228;2022-10-23T06:17:59;10.60;99.90
2897;DHT22;1458;49.728;9.228;2022-10-23T06:20:28;10.50;99.90
2897;DHT22;1458;49.728;9.228;2022-10-23T06:23:05;10.40;99.90
2897;DHT22;1458;49.728;9.228;2022-10-23T06:25:56;10.50;99.90
2897;DHT22;1458;49.728;9.228;2022-10-23T06:28:31;10.50;99.90
2897;DHT22;1458;49.728;9.228;2022-10-23T06:31:03;10.50;99.90
2897;DHT22;1458;49.728;9.228;2022-10-23T06:33:31;10.40;99.90
2897;DHT22;1458;49.728;9.228;2022-10-23T06:36:02;10.40;99.90
2897;DHT22;1458;49.728;9.228;2022-10-23T06:38:31;10.50;99.90
2897;DHT22;1458;49.728;9.228;2022-10-23T06:41:03;10.60;99.90
2897;DHT22;1458;49.728;9.228;2022-10-23T06:43:35;10.70;99.90
2897;DHT22;1458;49.728;9.228;2022-10-23T06:46:14;10.60;99.90
2897;DHT22;1458;49.728;9.228;2022-10-23T06:49:04;10.70;99.90
2897;DHT22;1458;49.728;9.228;2022-10-23T06:51:38;10.70;99.90
2897;DHT22;1458;49.728;9.228;2022-10-23T06:54:10;10.70;99.90
2897;DHT22;1458;49.728;9.228;2022-10-23T06:56:49;10.90;99.90
2897;DHT22;1458;49.728;9.228;2022-10-23T06:59:21;10.90;99.90
2897;DHT22;1458;49.728;9.228;2022-10-23T07:01:52;10.80;99.90
2897;DHT22;1458;49.728;9.228;2022-10-23T07:04:21;10.90;99.90
2897;DHT22;1458;49.728;9.228;2022-10-23T07:06:49;10.90;99.90
2897;DHT22;1458;49.728;9.228;2022-10-23T07:09:23;11.00;99.90
2897;DHT22;1458;49.728;9.228;2022-10-23T07:11:50;11.20;99.90
2897;DHT22;1458;49.728;9.228;2022-10-23T07:14:22;11.30;99.90
2897;DHT22;1458;49.728;9.228;2022-10-23T07:16:51;11.20;99.90
2897;DHT22;1458;49.728;9.228;2022-10-23T07:19:19;11.20;99.90
2897;DHT22;1458;49.728;9.228;2022-10-23T07:21:55;11.20;99.90
2897;DHT22;1458;49.728;9.228;2022-10-23T07:24:51;11.20;99.90
2897;DHT22;1458;49.728;9.228;2022-10-23T07:27:24;11.40;99.90
2897;DHT22;1458;49.728;9.228;2022-10-23T07:29:56;11.40;99.90
2897;DHT22;1458;49.728;9.228;2022-10-23T07:32:29;11.50;99.90
2897;DHT22;1458;49.728;9.228;2022-10-23T07:35:16;11.40;99.90
2897;DHT22;1458;49.728;9.228;2022-10-23T07:37:58;11.50;99.90
2897;DHT22;1458;49.728;9.228;2022-10-23T07:40:30;11.60;99.90
2897;DHT22;1458;49.728;9.228;2022-10-23T07:42:57;11.80;99.90
2897;DHT22;1458;49.728;9.228;2022-10-23T07:45:25;11.70;99.90
2897;DHT22;1458;49.728;9.228;2022-10-23T07:47:54;11.60;99.90
2897;DHT22;1458;49.728;9.228;2022-10-23T07:50:25;11.80;99.90
2897;DHT22;1458;49.728;9.228;2022-10-23T07:52:52;11.90;99.90
2897;DHT22;1458;49.728;9.228;2022-10-23T07:55:24;12.00;99.90
2897;DHT22;1458;49.728;9.228;2022-10-23T07:58:05;12.10;99.90
2897;DHT22;1458;49.728;9.228;2022-10-23T08:00:43;12.00;99.90
2897;DHT22;1458;49.728;9.228;2022-10-23T08:03:27;11.90;99.90
2897;DHT22;1458;49.728;9.228;2022-10-23T08:05:57;12.00;99.90
2897;DHT22;1458;49.728;9.228;2022-10-23T08:08:27;12.00;99.90
2897;DHT22;1458;49.728;9.228;2022-10-23T08:11:00;12.00;99.90
2897;DHT22;1458;49.728;9.228;2022-10-23T08:13:34;12.10;99.90
2897;DHT22;1458;49.728;9.228;2022-10-23T08:16:05;12.30;99.90
2897;DHT22;1458;49.728;9.228;2022-10-23T08:19:07;12.40;99.90
2897;DHT22;1458;49.728;9.228;2022-10-23T08:21:38;12.70;99.90
2897;DHT22;1458;49.728;9.228;2022-10-23T08:24:08;12.80;99.90
2897;DHT22;1458;49.728;9.228;2022-10-23T08:26:40;13.10;99.90
2897;DHT22;1458;49.728;9.228;2022-10-23T08:29:08;13.10;99.90
2897;DHT22;1458;49.728;9.228;2022-10-23T08:31:36;13.30;99.90
2897;DHT22;1458;49.728;9.228;2022-10-23T08:34:18;13.60;99.90
2897;DHT22;1458;49.728;9.228;2022-10-23T08:36:47;13.60;99.90
2897;DHT22;1458;49.728;9.228;2022-10-23T08:39:15;13.50;99.90
2897;DHT22;1458;49.728;9.228;2022-10-23T08:42:14;13.60;99.90
2897;DHT22;1458;49.728;9.228;2022-10-23T08:44:49;13.80;99.90
2897;DHT22;1458;49.728;9.228;2022-10-23T08:47:25;13.90;99.90
2897;DHT22;1458;49.728;9.228;2022-10-23T08:50:01;13.80;99.90
2897;DHT22;1458;49.728;9.228;2022-10-23T08:52:39;13.90;99.90
2897;DHT22;1458;49.728;9.228;2022-10-23T08:55:15;13.90;99.90
2897;DHT22;1458;49.728;9.228;2022-10-23T08:57:47;14.00;99.90
2897;DHT22;1458;49.728;9.228;2022-10-23T09:00:19;14.00;99.90
2897;DHT22;1458;49.728;9.228;2022-10-23T09:02:48;13.90;99.90
2897;DHT22;1458;49.728;9.228;2022-10-23T09:05:23;14.10;99.90
2897;DHT22;1458;49.728;9.228;2022-10-23T09:08:15;14.20;99.90
2897;DHT22;1458;49.728;9.228;2022-10-23T09:10:57;14.20;99.90
2897;DHT22;1458;49.728;9.228;2022-10-23T09:14:02;14.40;99.90
2897;DHT22;1458;49.728;9.228;2022-10-23T09:17:01;14.40;99.90
2897;DHT22;1458;49.728;9.228;2022-10-23T09:19:34;14.70;99.90
2897;DHT22;1458;49.728;9.228;2022-10-23T09:22:04;14.60;99.90
2897;DHT22;1458;49.728;9.228;2022-10-23T09:24:32;14.70;99.90
2897;DHT22;1458;49.728;9.228;2022-10-23T09:27:01;14.70;99.90
2897;DHT22;1458;49.728;9.228;2022-10-23T09:29:31;14.70;99.90
2897;DHT22;1458;49.728;9.228;2022-10-23T09:32:02;14.70;99.90
2897;DHT22;1458;49.728;9.228;2022-10-23T09:34:33;15.00;99.90
2897;DHT22;1458;49.728;9.228;2022-10-23T09:37:16;15.10;99.90
2897;DHT22;1458;49.728;9.228;2022-10-23T09:39:48;15.10;99.90
2897;DHT22;1458;49.728;9.228;2022-10-23T09:42:22;15.20;99.90
2897;DHT22;1458;49.728;9.228;2022-10-23T09:44:52;15.60;99.90
2897;DHT22;1458;49.728;9.228;2022-10-23T09:47:23;15.70;99.90
2897;DHT22;1458;49.728;9.228;2022-10-23T09:49:54;15.80;99.90
2897;DHT22;1458;49.728;9.228;2022-10-23T09:52:29;15.90;99.90
2897;DHT22;1458;49.728;9.228;2022-10-23T09:55:03;16.00;99.90
2897;DHT22;1458;49.728;9.228;2022-10-23T09:57:46;16.00;99.90
2897;DHT22;1458;49.728;9.228;2022-10-23T10:00:17;15.80;99.90
2897;DHT22;1458;49.728;9.228;2022-10-23T10:02:55;15.90;99.90
2897;DHT22;1458;49.728;9.228;2022-10-23T10:05:32;16.10;99.90
2897;DHT22;1458;49.728;9.228;2022-10-23T10:11:36;16.10;99.10
2897;DHT22;1458;49.728;9.228;2022-10-23T10:14:35;16.10;99.20
2897;DHT22;1458;49.728;9.228;2022-10-23T10:17:17;16.20;98.90
2897;DHT22;1458;49.728;9.228;2022-10-23T10:23:24;16.50;97.90
2897;DHT22;1458;49.728;9.228;2022-10-23T10:26:04;16.60;97.70
2897;DHT22;1458;49.728;9.228;2022-10-23T10:28:48;16.40;98.00
2897;DHT22;1458;49.728;9.228;2022-10-23T10:31:25;16.40;97.90
2897;DHT22;1458;49.728;9.228;2022-10-23T10:34:06;16.30;97.90
2897;DHT22;1458;49.728;9.228;2022-10-23T10:36:46;16.20;98.50
2897;DHT22;1458;49.728;9.228;2022-10-23T10:39:34;16.10;98.30
2897;DHT22;1458;49.728;9.228;2022-10-23T10:45:17;16.30;98.70
2897;DHT22;1458;49.728;9.228;2022-10-23T10:51:35;16.30;98.80
2897;DHT22;1458;49.728;9.228;2022-10-23T10:54:31;16.30;98.90
2897;DHT22;1458;49.728;9.228;2022-10-23T10:57:28;16.30;98.70
2897;DHT22;1458;49.728;9.228;2022-10-23T11:00:00;16.30;99.20
2897;DHT22;1458;49.728;9.228;2022-10-23T11:02:37;16.20;99.10
2897;DHT22;1458;49.728;9.228;2022-10-23T11:05:16;16.30;98.90
2897;DHT22;1458;49.728;9.228;2022-10-23T11:07:54;16.50;98.80
2897;DHT22;1458;49.728;9.228;2022-10-23T11:10:24;16.50;98.70
2897;DHT22;1458;49.728;9.228;2022-10-23T11:12:55;16.60;98.60
2897;DHT22;1458;49.728;9.228;2022-10-23T11:15:37;16.60;98.80
2897;DHT22;1458;49.728;9.228;2022-10-23T11:18:14;16.80;98.80
2897;DHT22;1458;49.728;9.228;2022-10-23T11:20:57;16.70;98.00
2897;DHT22;1458;49.728;9.228;2022-10-23T11:23:57;16.60;98.40
2897;DHT22;1458;49.728;9.228;2022-10-23T11:26:56;16.60;98.50
2897;DHT22;1458;49.728;9.228;2022-10-23T11:29:53;16.50;99.20
2897;DHT22;1458;49.728;9.228;2022-10-23T11:32:46;16.60;98.60
2897;DHT22;1458;49.728;9.228;2022-10-23T11:35:44;16.70;99.10
2897;DHT22;1458;49.728;9.228;2022-10-23T11:38:18;17.00;98.50
2897;DHT22;1458;49.728;9.228;2022-10-23T11:40:53;17.10;97.80
2897;DHT22;1458;49.728;9.228;2022-10-23T11:43:28;17.30;97.80
2897;DHT22;1458;49.728;9.228;2022-10-23T11:46:11;17.30;97.20
2897;DHT22;1458;49.728;9.228;2022-10-23T11:48:40;17.30;97.70
2897;DHT22;1458;49.728;9.228;2022-10-23T11:51:24;17.40;98.20
2897;DHT22;1458;49.728;9.228;2022-10-23T11:54:04;17.60;98.50
2897;DHT22;1458;49.728;9.228;2022-10-23T11:56:32;17.70;96.90
2897;DHT22;1458;49.728;9.228;2022-10-23T11:59:20;17.80;96.50
2897;DHT22;1458;49.728;9.228;2022-10-23T12:01:52;17.60;96.50
2897;DHT22;1458;49.728;9.228;2022-10-23T12:04:22;17.70;97.00
2897;DHT22;1458;49.728;9.228;2022-10-23T12:06:52;17.80;97.10
2897;DHT22;1458;49.728;9.228;2022-10-23T12:09:25;17.90;96.50
2897;DHT22;1458;49.728;9.228;2022-10-23T12:12:14;17.80;96.50
2897;DHT22;1458;49.728;9.228;2022-10-23T12:14:45;17.80;96.40
2897;DHT22;1458;49.728;9.228;2022-10-23T12:17:33;17.80;96.70
2897;DHT22;1458;49.728;9.228;2022-10-23T12:20:18;17.90;96.90
2897;DHT22;1458;49.728;9.228;2022-10-23T12:22:59;17.90;96.40
2897;DHT22;1458;49.728;9.228;2022-10-23T12:25:39;17.50;96.90
2897;DHT22;1458;49.728;9.228;2022-10-23T12:28:18;17.30;97.50
2897;DHT22;1458;49.728;9.228;2022-10-23T12:31:04;17.20;98.10
2897;DHT22;1458;49.728;9.228;2022-10-23T12:33:47;17.20;98.70
2897;DHT22;1458;49.728;9.228;2022-10-23T12:36:36;17.30;99.50
2897;DHT22;1458;49.728;9.228;2022-10-23T12:39:28;17.80;98.80
2897;DHT22;1458;49.728;9.228;2022-10-23T12:41:57;18.10;97.80
2897;DHT22;1458;49.728;9.228;2022-10-23T12:44:25;18.30;96.70
2897;DHT22;1458;49.728;9.228;2022-10-23T12:46:56;18.20;96.30
2897;DHT22;1458;49.728;9.228;2022-10-23T12:49:28;18.10;96.80
2897;DHT22;1458;49.728;9.228;2022-10-23T12:51:59;17.90;96.80
2897;DHT22;1458;49.728;9.228;2022-10-23T12:54:30;17.70;98.00
2897;DHT22;1458;49.728;9.228;2022-10-23T12:56:58;17.60;98.10
2897;DHT22;1458;49.728;9.228;2022-10-23T12:59:32;17.50;98.40
2897;DHT22;1458;49.728;9.228;2022-10-23T13:02:16;17.70;98.10
2897;DHT22;1458;49.728;9.228;2022-10-23T13:04:53;17.60;98.60
2897;DHT22;1458;49.728;9.228;2022-10-23T13:07:24;17.80;98.20
2897;DHT22;1458;49.728;9.228;2022-10-23T13:09:56;17.80;98.60
2897;DHT22;1458;49.728;9.228;2022-10-23T13:12:28;17.90;98.20
2897;DHT22;1458;49.728;9.228;2022-10-23T13:14:59;18.10;97.90
2897;DHT22;1458;49.728;9.228;2022-10-23T13:17:33;18.30;97.30
2897;DHT22;1458;49.728;9.228;2022-10-23T13:20:23;18.40;97.10
2897;DHT22;1458;49.728;9.228;2022-10-23T13:22:59;18.40;97.00
2897;DHT22;1458;49.728;9.228;2022-10-23T13:25:29;18.50;96.90
2897;DHT22;1458;49.728;9.228;2022-10-23T13:28:22;18.40;96.90
2897;DHT22;1458;49.728;9.228;2022-10-23T13:31:03;18.50;96.70
2897;DHT22;1458;49.728;9.228;2022-10-23T13:34:22;18.60;97.00
2897;DHT22;1458;49.728;9.228;2022-10-23T13:37:22;18.70;96.90
2897;DHT22;1458;49.728;9.228;2022-10-23T13:39:59;18.70;96.90
2897;DHT22;1458;49.728;9.228;2022-10-23T13:42:27;18.60;96.70
2897;DHT22;1458;49.728;9.228;2022-10-23T13:44:54;18.70;96.30
2897;DHT22;1458;49.728;9.228;2022-10-23T13:47:23;18.60;96.70
2897;DHT22;1458;49.728;9.228;2022-10-23T13:49:51;18.70;96.90
2897;DHT22;1458;49.728;9.228;2022-10-23T13:52:22;18.70;97.40
2897;DHT22;1458;49.728;9.228;2022-10-23T13:54:50;18.70;96.90
2897;DHT22;1458;49.728;9.228;2022-10-23T13:57:17;18.50;97.30
2897;DHT22;1458;49.728;9.228;2022-10-23T13:59:45;18.30;97.50
2897;DHT22;1458;49.728;9.228;2022-10-23T14:02:18;18.40;97.80
2897;DHT22;1458;49.728;9.228;2022-10-23T14:04:47;18.30;98.10
2897;DHT22;1458;49.728;9.228;2022-10-23T14:07:15;18.30;98.00
2897;DHT22;1458;49.728;9.228;2022-10-23T14:09:44;18.40;98.30
2897;DHT22;1458;49.728;9.228;2022-10-23T14:12:12;18.50;97.90
2897;DHT22;1458;49.728;9.228;2022-10-23T14:14:39;18.50;98.20
2897;DHT22;1458;49.728;9.228;2022-10-23T14:17:06;18.40;98.40
2897;DHT22;1458;49.728;9.228;2022-10-23T14:19:34;18.40;98.40
2897;DHT22;1458;49.728;9.228;2022-10-23T14:22:02;18.30;98.10
2897;DHT22;1458;49.728;9.228;2022-10-23T14:24:29;18.30;98.40
2897;DHT22;1458;49.728;9.228;2022-10-23T14:26:58;18.20;98.80
2897;DHT22;1458;49.728;9.228;2022-10-23T14:29:26;18.20;98.70
2897;DHT22;1458;49.728;9.228;2022-10-23T14:31:54;18.30;99.10
2897;DHT22;1458;49.728;9.228;2022-10-23T14:34:21;18.30;98.90
2897;DHT22;1458;49.728;9.228;2022-10-23T14:36:49;18.30;99.20
2897;DHT22;1458;49.728;9.228;2022-10-23T14:39:16;18.30;99.90
2897;DHT22;1458;49.728;9.228;2022-10-23T14:41:44;18.40;99.90
2897;DHT22;1458;49.728;9.228;2022-10-23T14:44:13;18.30;99.90
2897;DHT22;1458;49.728;9.228;2022-10-23T14:46:41;18.40;99.10
2897;DHT22;1458;49.728;9.228;2022-10-23T14:49:08;18.30;98.90
2897;DHT22;1458;49.728;9.228;2022-10-23T14:51:36;18.20;99.00
2897;DHT22;1458;49.728;9.228;2022-10-23T14:54:05;18.10;99.30
2897;DHT22;1458;49.728;9.228;2022-10-23T14:56:37;18.10;99.60
2897;DHT22;1458;49.728;9.228;2022-10-23T14:59:05;18.10;99.30
2897;DHT22;1458;49.728;9.228;2022-10-23T15:01:38;18.10;99.40
2897;DHT22;1458;49.728;9.228;2022-10-23T15:04:07;18.10;99.80
2897;DHT22;1458;49.728;9.228;2022-10-23T15:06:35;18.00;99.90
2897;DHT22;1458;49.728;9.228;2022-10-23T15:09:03;18.00;99.90
2897;DHT22;1458;49.728;9.228;2022-10-23T15:11:31;18.00;99.90
2897;DHT22;1458;49.728;9.228;2022-10-23T15:13:59;17.90;99.90
2897;DHT22;1458;49.728;9.228;2022-10-23T15:16:28;17.90;99.90
2897;DHT22;1458;49.728;9.228;2022-10-23T15:18:57;17.80;99.90
2897;DHT22;1458;49.728;9.228;2022-10-23T15:21:24;17.80;99.90
2897;DHT22;1458;49.728;9.228;2022-10-23T15:23:52;17.70;99.90
2897;DHT22;1458;49.728;9.228;2022-10-23T15:26:20;17.70;99.90
2897;DHT22;1458;49.728;9.228;2022-10-23T15:28:53;17.70;99.90
2897;DHT22;1458;49.728;9.228;2022-10-23T15:31:41;17.70;99.90
2897;DHT22;1458;49.728;9.228;2022-10-23T15:34:13;17.70;99.90
2897;DHT22;1458;49.728;9.228;2022-10-23T15:36:41;17.70;99.90
2897;DHT22;1458;49.728;9.228;2022-10-23T15:39:14;17.70;99.90
2897;DHT22;1458;49.728;9.228;2022-10-23T15:41:44;17.70;99.90
2897;DHT22;1458;49.728;9.228;2022-10-23T15:44:14;17.60;99.90
2897;DHT22;1458;49.728;9.228;2022-10-23T15:46:42;17.50;99.90
2897;DHT22;1458;49.728;9.228;2022-10-23T15:49:11;17.50;99.90
2897;DHT22;1458;49.728;9.228;2022-10-23T15:51:39;17.40;99.90
2897;DHT22;1458;49.728;9.228;2022-10-23T15:54:09;17.30;99.90
2897;DHT22;1458;49.728;9.228;2022-10-23T15:56:41;17.20;99.90
2897;DHT22;1458;49.728;9.228;2022-10-23T15:59:09;17.20;99.90
2897;DHT22;1458;49.728;9.228;2022-10-23T16:01:37;17.10;99.90
2897;DHT22;1458;49.728;9.228;2022-10-23T16:04:05;17.10;99.90
2897;DHT22;1458;49.728;9.228;2022-10-23T16:06:34;17.10;99.90
2897;DHT22;1458;49.728;9.228;2022-10-23T16:09:01;17.00;99.90
2897;DHT22;1458;49.728;9.228;2022-10-23T16:11:31;17.00;99.90
2897;DHT22;1458;49.728;9.228;2022-10-23T16:14:07;16.80;99.90
2897;DHT22;1458;49.728;9.228;2022-10-23T16:16:35;16.80;99.90
2897;DHT22;1458;49.728;9.228;2022-10-23T16:19:03;16.70;99.90
2897;DHT22;1458;49.728;9.228;2022-10-23T16:21:37;16.60;99.90
2897;DHT22;1458;49.728;9.228;2022-10-23T16:24:06;16.60;99.90
2897;DHT22;1458;49.728;9.228;2022-10-23T16:26:36;16.50;99.90
2897;DHT22;1458;49.728;9.228;2022-10-23T16:29:06;16.50;99.90
2897;DHT22;1458;49.728;9.228;2022-10-23T16:31:34;16.50;99.90
2897;DHT22;1458;49.728;9.228;2022-10-23T16:34:04;16.50;99.90
2897;DHT22;1458;49.728;9.228;2022-10-23T16:36:32;16.60;99.90
2897;DHT22;1458;49.728;9.228;2022-10-23T16:39:27;16.50;99.90
2897;DHT22;1458;49.728;9.228;2022-10-23T16:42:14;16.30;99.90
2897;DHT22;1458;49.728;9.228;2022-10-23T16:45:00;16.10;99.90
2897;DHT22;1458;49.728;9.228;2022-10-23T16:47:29;16.00;99.90
2897;DHT22;1458;49.728;9.228;2022-10-23T16:49:57;16.00;99.90
2897;DHT22;1458;49.728;9.228;2022-10-23T16:52:26;16.00;99.90
2897;DHT22;1458;49.728;9.228;2022-10-23T16:54:55;15.80;99.90
2897;DHT22;1458;49.728;9.228;2022-10-23T16:57:23;15.80;99.90
2897;DHT22;1458;49.728;9.228;2022-10-23T16:59:52;15.70;99.90
2897;DHT22;1458;49.728;9.228;2022-10-23T17:02:19;15.70;99.90
2897;DHT22;1458;49.728;9.228;2022-10-23T17:04:47;15.80;99.90